sensor_id;sensor_type;location;lat;lon;timestamp;temperature;humidity
7254;DHT22;4060;49.186;9.226;2023-04-29T00:01:34;17.00;70.00
7254;DHT22;4060;49.186;9.226;2023-04-29T00:04:03;17.00;70.00
7254;DHT22;4060;49.186;9.226;2023-04-29T00:06:33;17.00;70.00
7254;DHT22;4060;49.186;9.226;2023-04-29T00:09:16;17.00;70.00
7254;DHT22;4060;49.186;9.226;2023-04-29T00:11:54;17.00;70.00
7254;DHT22;4060;49.186;9.226;2023-04-29T00:14:26;17.00;69.90
7254;DHT22;4060;49.186;9.226;2023-04-29T00:16:56;17.00;69.90
7254;DHT22;4060;49.186;9.226;2023-04-29T00:19:25;17.00;69.90
7254;DHT22;4060;49.186;9.226;2023-04-29T00:21:55;16.90;69.80
7254;DHT22;4060;49.186;9.226;2023-04-29T00:24:24;16.90;69.80
7254;DHT22;4060;49.186;9.226;2023-04-29T00:26:54;16.90;69.80
7254;DHT22;4060;49.186;9.226;2023-04-29T00:29:27;16.90;69.70
7254;DHT22;4060;49.186;9.226;2023-04-29T00:31:57;16.90;69.80
7254;DHT22;4060;49.186;9.226;2023-04-29T00:34:26;16.90;69.80
7254;DHT22;4060;49.186;9.226;2023-04-29T00:36:55;16.90;69.80
7254;DHT22;4060;49.186;9.226;2023-04-29T00:39:25;16.90;69.80
7254;DHT22;4060;49.186;9.226;2023-04-29T00:41:54;16.90;69.80
7254;DHT22;4060;49.186;9.226;2023-04-29T00:44:26;16.90;69.80
7254;DHT22;4060;49.186;9.226;2023-04-29T00:46:55;16.90;69.80
7254;DHT22;4060;49.186;9.226;2023-04-29T00:49:49;16.80;69.60
7254;DHT22;4060;49.186;9.226;2023-04-29T00:52:18;16.80;69.60
7254;DHT22;4060;49.186;9.226;2023-04-29T00:54:47;16.80;69.60
7254;DHT22;4060;49.186;9.226;2023-04-29T00:57:35;16.80;69.60
7254;DHT22;4060;49.186;9.226;2023-04-29T01:00:24;16.80;69.80
7254;DHT22;4060;49.186;9.226;2023-04-29T01:02:53;16.80;69.60
7254;DHT22;4060;49.186;9.226;2023-04-29T01:05:23;16.80;69.70
7254;DHT22;4060;49.186;9.226;2023-04-29T01:08:03;16.80;69.70
7254;DHT22;4060;49.186;9.226;2023-04-29T01:10:43;16.80;69.70
7254;DHT22;4060;49.186;9.226;2023-04-29T01:13:20;16.80;69.80
7254;DHT22;4060;49.186;9.226;2023-04-29T01:16:01;16.70;69.60
7254;DHT22;4060;49.186;9.226;2023-04-29T01:18:34;16.70;69.60
7254;DHT22;4060;49.186;9.226;2023-04-29T01:21:05;16.70;69.50
7254;DHT22;4060;49.186;9.226;2023-04-29T01:23:36;16.70;69.50
7254;DHT22;4060;49.186;9.226;2023-04-29T01:26:05;16.70;69.60
7254;DHT22;4060;49.186;9.226;2023-04-29T01:28:42;16.70;69.60
7254;DHT22;4060;49.186;9.226;2023-04-29T01:31:18;16.70;69.60
7254;DHT22;4060;49.186;9.226;2023-04-29T01:33:53;16.70;69.60
7254;DHT22;4060;49.186;9.226;2023-04-29T01:36:31;16.70;69.70
7254;DHT22;4060;49.186;9.226;2023-04-29T01:39:12;16.70;69.60
7254;DHT22;4060;49.186;9.226;2023-04-29T01:41:43;16.70;69.70
7254;DHT22;4060;49.186;9.226;2023-04-29T01:44:15;16.60;69.50
7254;DHT22;4060;49.186;9.226;2023-04-29T01:46:51;16.60;69.50
7254;DHT22;4060;49.186;9.226;2023-04-29T01:49:23;16.60;69.50
7254;DHT22;4060;49.186;9.226;2023-04-29T01:51:53;16.60;69.40
7254;DHT22;4060;49.186;9.226;2023-04-29T01:54:24;16.60;69.40
7254;DHT22;4060;49.186;9.226;2023-04-29T01:56:54;16.60;69.50
7254;DHT22;4060;49.186;9.226;2023-04-29T01:59:24;16.60;69.50
7254;DHT22;4060;49.186;9.226;2023-04-29T02:01:54;16.60;69.50
7254;DHT22;4060;49.186;9.226;2023-04-29T02:04:25;16.50;69.30
7254;DHT22;4060;49.186;9.226;2023-04-29T02:06:54;16.60;69.50
7254;DHT22;4060;49.186;9.226;2023-04-29T02:09:24;16.50;69.30
7254;DHT22;4060;49.186;9.226;2023-04-29T02:11:53;16.50;69.40
7254;DHT22;4060;49.186;9.226;2023-04-29T02:14:22;16.50;69.40
7254;DHT22;4060;49.186;9.226;2023-04-29T02:16:52;16.50;69.40
7254;DHT22;4060;49.186;9.226;2023-04-29T02:19:21;16.50;69.50
7254;DHT22;4060;49.186;9.226;2023-04-29T02:21:50;16.50;69.40
7254;DHT22;4060;49.186;9.226;2023-04-29T02:24:38;16.50;69.40
7254;DHT22;4060;49.186;9.226;2023-04-29T02:27:07;16.50;69.40
7254;DHT22;4060;49.186;9.226;2023-04-29T02:29:36;16.50;69.40
7254;DHT22;4060;49.186;9.226;2023-04-29T02:32:05;16.50;69.40
7254;DHT22;4060;49.186;9.226;2023-04-29T02:37:33;16.50;69.40
7254;DHT22;4060;49.186;9.226;2023-04-29T02:40:05;16.50;69.40
7254;DHT22;4060;49.186;9.226;2023-04-29T02:42:52;16.40;69.40
7254;DHT22;4060;49.186;9.226;2023-04-29T02:45:21;16.40;69.30
7254;DHT22;4060;49.186;9.226;2023-04-29T02:47:50;16.40;69.30
7254;DHT22;4060;49.186;9.226;2023-04-29T02:50:20;16.40;69.30
7254;DHT22;4060;49.186;9.226;2023-04-29T02:52:51;16.40;69.40
7254;DHT22;4060;49.186;9.226;2023-04-29T02:55:23;16.40;69.30
7254;DHT22;4060;49.186;9.226;2023-04-29T02:57:53;16.40;69.30
7254;DHT22;4060;49.186;9.226;2023-04-29T03:00:22;16.40;69.40
7254;DHT22;4060;49.186;9.226;2023-04-29T03:02:52;16.40;69.40
7254;DHT22;4060;49.186;9.226;2023-04-29T03:05:21;16.40;69.40
7254;DHT22;4060;49.186;9.226;2023-04-29T03:07:51;16.40;69.40
7254;DHT22;4060;49.186;9.226;2023-04-29T03:10:22;16.40;69.40
7254;DHT22;4060;49.186;9.226;2023-04-29T03:12:51;16.40;69.40
7254;DHT22;4060;49.186;9.226;2023-04-29T03:15:20;16.40;69.40
7254;DHT22;4060;49.186;9.226;2023-04-29T03:17:50;16.40;69.40
7254;DHT22;4060;49.186;9.226;2023-04-29T03:20:19;16.40;69.40
7254;DHT22;4060;49.186;9.226;2023-04-29T03:22:48;16.40;69.40
7254;DHT22;4060;49.186;9.226;2023-04-29T03:25:20;16.40;69.40
7254;DHT22;4060;49.186;9.226;2023-04-29T03:27:51;16.40;69.40
7254;DHT22;4060;49.186;9.226;2023-04-29T03:30:21;16.40;69.40
7254;DHT22;4060;49.186;9.226;2023-04-29T03:32:50;16.40;69.40
7254;DHT22;4060;49.186;9.226;2023-04-29T03:35:20;16.40;69.40
7254;DHT22;4060;49.186;9.226;2023-04-29T03:37:49;16.40;69.40
7254;DHT22;4060;49.186;9.226;2023-04-29T03:40:18;16.40;69.50
7254;DHT22;4060;49.186;9.226;2023-04-29T03:42:49;16.40;69.40
7254;DHT22;4060;49.186;9.226;2023-04-29T03:45:18;16.40;69.40
7254;DHT22;4060;49.186;9.226;2023-04-29T03:47:47;16.40;69.40
7254;DHT22;4060;49.186;9.226;2023-04-29T03:50:16;16.40;69.50
7254;DHT22;4060;49.186;9.226;2023-04-29T03:52:46;16.40;69.50
7254;DHT22;4060;49.186;9.226;2023-04-29T03:55:15;16.40;69.50
7254;DHT22;4060;49.186;9.226;2023-04-29T03:57:44;16.40;69.50
7254;DHT22;4060;49.186;9.226;2023-04-29T04:00:16;16.40;69.50
7254;DHT22;4060;49.186;9.226;2023-04-29T04:02:45;16.40;69.60
7254;DHT22;4060;49.186;9.226;2023-04-29T04:05:14;16.40;69.60
7254;DHT22;4060;49.186;9.226;2023-04-29T04:07:45;16.40;69.60
7254;DHT22;4060;49.186;9.226;2023-04-29T04:10:14;16.40;69.60
7254;DHT22;4060;49.186;9.226;2023-04-29T04:12:44;16.30;69.40
7254;DHT22;4060;49.186;9.226;2023-04-29T04:15:16;16.30;69.40
7254;DHT22;4060;49.186;9.226;2023-04-29T04:17:49;16.40;69.70
7254;DHT22;4060;49.186;9.226;2023-04-29T04:20:18;16.40;69.70
7254;DHT22;4060;49.186;9.226;2023-04-29T04:22:48;16.30;69.50
7254;DHT22;4060;49.186;9.226;2023-04-29T04:25:17;16.40;69.70
7254;DHT22;4060;49.186;9.226;2023-04-29T04:27:46;16.30;69.50
7254;DHT22;4060;49.186;9.226;2023-04-29T04:30:17;16.30;69.50
7254;DHT22;4060;49.186;9.226;2023-04-29T04:32:46;16.30;69.60
7254;DHT22;4060;49.186;9.226;2023-04-29T04:35:15;16.30;69.60
7254;DHT22;4060;49.186;9.226;2023-04-29T04:37:44;16.30;69.60
7254;DHT22;4060;49.186;9.226;2023-04-29T04:40:14;16.30;69.60
7254;DHT22;4060;49.186;9.226;2023-04-29T04:42:43;16.30;69.60
7254;DHT22;4060;49.186;9.226;2023-04-29T04:45:12;16.30;69.70
7254;DHT22;4060;49.186;9.226;2023-04-29T04:47:43;16.30;69.60
7254;DHT22;4060;49.186;9.226;2023-04-29T04:50:12;16.30;69.60
7254;DHT22;4060;49.186;9.226;2023-04-29T04:52:42;16.30;69.60
7254;DHT22;4060;49.186;9.226;2023-04-29T04:55:11;16.30;69.60
7254;DHT22;4060;49.186;9.226;2023-04-29T04:57:41;16.30;69.60
7254;DHT22;4060;49.186;9.226;2023-04-29T05:00:11;16.30;69.60
7254;DHT22;4060;49.186;9.226;2023-04-29T05:02:42;16.30;69.60
7254;DHT22;4060;49.186;9.226;2023-04-29T05:05:12;16.30;69.70
7254;DHT22;4060;49.186;9.226;2023-04-29T05:07:41;16.30;69.70
7254;DHT22;4060;49.186;9.226;2023-04-29T05:10:11;16.30;69.90
7254;DHT22;4060;49.186;9.226;2023-04-29T05:12:40;16.30;70.10
7254;DHT22;4060;49.186;9.226;2023-04-29T05:15:10;16.30;70.10
7254;DHT22;4060;49.186;9.226;2023-04-29T05:17:44;16.30;70.20
7254;DHT22;4060;49.186;9.226;2023-04-29T05:20:14;16.30;70.30
7254;DHT22;4060;49.186;9.226;2023-04-29T05:22:46;16.30;70.40
7254;DHT22;4060;49.186;9.226;2023-04-29T05:25:18;16.30;70.50
7254;DHT22;4060;49.186;9.226;2023-04-29T05:27:47;16.30;70.80
7254;DHT22;4060;49.186;9.226;2023-04-29T05:30:17;16.30;70.90
7254;DHT22;4060;49.186;9.226;2023-04-29T05:32:48;16.30;70.90
7254;DHT22;4060;49.186;9.226;2023-04-29T05:35:17;16.30;70.90
7254;DHT22;4060;49.186;9.226;2023-04-29T05:37:47;16.30;70.90
7254;DHT22;4060;49.186;9.226;2023-04-29T05:43:19;16.40;71.10
7254;DHT22;4060;49.186;9.226;2023-04-29T05:45:48;16.30;70.90
7254;DHT22;4060;49.186;9.226;2023-04-29T05:48:19;16.40;71.20
7254;DHT22;4060;49.186;9.226;2023-04-29T05:50:48;16.40;71.20
7254;DHT22;4060;49.186;9.226;2023-04-29T05:53:17;16.30;71.00
7254;DHT22;4060;49.186;9.226;2023-04-29T05:55:47;16.40;71.20
7254;DHT22;4060;49.186;9.226;2023-04-29T05:58:16;16.40;71.20
7254;DHT22;4060;49.186;9.226;2023-04-29T06:00:46;16.40;71.40
7254;DHT22;4060;49.186;9.226;2023-04-29T06:03:17;16.40;72.20
7254;DHT22;4060;49.186;9.226;2023-04-29T06:05:46;16.40;73.00
7254;DHT22;4060;49.186;9.226;2023-04-29T06:08:16;16.30;73.60
7254;DHT22;4060;49.186;9.226;2023-04-29T06:10:46;16.30;74.30
7254;DHT22;4060;49.186;9.226;2023-04-29T06:13:17;16.30;75.00
7254;DHT22;4060;49.186;9.226;2023-04-29T06:15:47;16.30;75.30
7254;DHT22;4060;49.186;9.226;2023-04-29T06:18:18;16.30;75.50
7254;DHT22;4060;49.186;9.226;2023-04-29T06:20:48;16.30;75.50
7254;DHT22;4060;49.186;9.226;2023-04-29T06:23:17;16.30;75.30
7254;DHT22;4060;49.186;9.226;2023-04-29T06:25:47;16.30;75.10
7254;DHT22;4060;49.186;9.226;2023-04-29T06:28:17;16.30;75.00
7254;DHT22;4060;49.186;9.226;2023-04-29T06:30:46;16.30;75.10
7254;DHT22;4060;49.186;9.226;2023-04-29T06:33:18;16.30;75.10
7254;DHT22;4060;49.186;9.226;2023-04-29T06:35:47;16.30;75.10
7254;DHT22;4060;49.186;9.226;2023-04-29T06:38:16;16.30;75.20
7254;DHT22;4060;49.186;9.226;2023-04-29T06:40:45;16.30;75.10
7254;DHT22;4060;49.186;9.226;2023-04-29T06:43:14;16.30;75.00
7254;DHT22;4060;49.186;9.226;2023-04-29T06:45:45;16.30;74.90
7254;DHT22;4060;49.186;9.226;2023-04-29T06:48:33;16.40;75.00
7254;DHT22;4060;49.186;9.226;2023-04-29T06:51:02;16.40;75.00
7254;DHT22;4060;49.186;9.226;2023-04-29T06:53:32;16.40;74.70
7254;DHT22;4060;49.186;9.226;2023-04-29T06:56:01;16.40;74.60
7254;DHT22;4060;49.186;9.226;2023-04-29T06:58:31;16.40;74.60
7254;DHT22;4060;49.186;9.226;2023-04-29T07:01:01;16.40;74.40
7254;DHT22;4060;49.186;9.226;2023-04-29T07:03:33;16.40;74.30
7254;DHT22;4060;49.186;9.226;2023-04-29T07:06:03;16.40;74.30
7254;DHT22;4060;49.186;9.226;2023-04-29T07:08:33;16.40;74.20
7254;DHT22;4060;49.186;9.226;2023-04-29T07:11:03;16.40;74.10
7254;DHT22;4060;49.186;9.226;2023-04-29T07:13:32;16.40;74.00
7254;DHT22;4060;49.186;9.226;2023-04-29T07:16:01;16.40;74.00
7254;DHT22;4060;49.186;9.226;2023-04-29T07:18:33;16.40;73.90
7254;DHT22;4060;49.186;9.226;2023-04-29T07:21:02;16.40;73.90
7254;DHT22;4060;49.186;9.226;2023-04-29T07:23:34;16.40;73.90
7254;DHT22;4060;49.186;9.226;2023-04-29T07:26:10;16.40;73.90
7254;DHT22;4060;49.186;9.226;2023-04-29T07:28:39;16.40;74.00
7254;DHT22;4060;49.186;9.226;2023-04-29T07:31:08;16.40;74.00
7254;DHT22;4060;49.186;9.226;2023-04-29T07:33:40;16.40;74.10
7254;DHT22;4060;49.186;9.226;2023-04-29T07:36:10;16.40;74.10
7254;DHT22;4060;49.186;9.226;2023-04-29T07:38:39;16.40;74.00
7254;DHT22;4060;49.186;9.226;2023-04-29T07:41:09;16.40;74.00
7254;DHT22;4060;49.186;9.226;2023-04-29T07:43:38;16.40;74.10
7254;DHT22;4060;49.186;9.226;2023-04-29T07:46:07;16.40;74.10
7254;DHT22;4060;49.186;9.226;2023-04-29T07:48:39;16.40;74.00
7254;DHT22;4060;49.186;9.226;2023-04-29T07:51:13;16.50;74.20
7254;DHT22;4060;49.186;9.226;2023-04-29T07:53:42;16.40;74.10
7254;DHT22;4060;49.186;9.226;2023-04-29T07:56:11;16.40;74.00
7254;DHT22;4060;49.186;9.226;2023-04-29T07:58:39;16.40;74.00
7254;DHT22;4060;49.186;9.226;2023-04-29T08:01:08;16.40;74.00
7254;DHT22;4060;49.186;9.226;2023-04-29T08:03:39;16.50;74.10
7254;DHT22;4060;49.186;9.226;2023-04-29T08:06:08;16.50;74.10
7254;DHT22;4060;49.186;9.226;2023-04-29T08:08:37;16.50;74.10
7254;DHT22;4060;49.186;9.226;2023-04-29T08:11:07;16.50;74.10
7254;DHT22;4060;49.186;9.226;2023-04-29T08:13:37;16.50;74.10
7254;DHT22;4060;49.186;9.226;2023-04-29T08:16:07;16.50;74.10
7254;DHT22;4060;49.186;9.226;2023-04-29T08:18:38;16.50;74.10
7254;DHT22;4060;49.186;9.226;2023-04-29T08:21:07;16.50;74.00
7254;DHT22;4060;49.186;9.226;2023-04-29T08:23:37;16.60;74.10
7254;DHT22;4060;49.186;9.226;2023-04-29T08:26:09;16.60;74.10
7254;DHT22;4060;49.186;9.226;2023-04-29T08:28:39;16.60;74.10
7254;DHT22;4060;49.186;9.226;2023-04-29T08:31:16;16.60;74.20
7254;DHT22;4060;49.186;9.226;2023-04-29T08:33:47;16.60;74.10
7254;DHT22;4060;49.186;9.226;2023-04-29T08:36:16;16.60;74.10
7254;DHT22;4060;49.186;9.226;2023-04-29T08:38:46;16.60;74.10
7254;DHT22;4060;49.186;9.226;2023-04-29T08:41:19;16.60;74.10
7254;DHT22;4060;49.186;9.226;2023-04-29T08:43:49;16.60;74.10
7254;DHT22;4060;49.186;9.226;2023-04-29T08:46:18;16.60;74.20
7254;DHT22;4060;49.186;9.226;2023-04-29T08:48:51;16.60;74.40
7254;DHT22;4060;49.186;9.226;2023-04-29T08:51:22;16.60;74.40
7254;DHT22;4060;49.186;9.226;2023-04-29T08:53:53;16.70;74.40
7254;DHT22;4060;49.186;9.226;2023-04-29T08:56:22;16.70;74.10
7254;DHT22;4060;49.186;9.226;2023-04-29T08:58:53;16.70;73.90
7254;DHT22;4060;49.186;9.226;2023-04-29T09:01:26;16.70;73.70
7254;DHT22;4060;49.186;9.226;2023-04-29T09:04:07;16.80;73.70
7254;DHT22;4060;49.186;9.226;2023-04-29T09:06:37;16.80;73.80
7254;DHT22;4060;49.186;9.226;2023-04-29T09:09:08;16.80;73.70
7254;DHT22;4060;49.186;9.226;2023-04-29T09:11:37;16.80;73.80
7254;DHT22;4060;49.186;9.226;2023-04-29T09:14:07;16.80;73.90
7254;DHT22;4060;49.186;9.226;2023-04-29T09:16:36;16.80;74.00
7254;DHT22;4060;49.186;9.226;2023-04-29T09:19:08;16.90;74.10
7254;DHT22;4060;49.186;9.226;2023-04-29T09:21:37;16.90;74.30
7254;DHT22;4060;49.186;9.226;2023-04-29T09:24:06;16.90;74.30
7254;DHT22;4060;49.186;9.226;2023-04-29T09:26:43;16.90;74.20
7254;DHT22;4060;49.186;9.226;2023-04-29T09:29:13;17.00;74.50
7254;DHT22;4060;49.186;9.226;2023-04-29T09:31:44;17.00;74.40
7254;DHT22;4060;49.186;9.226;2023-04-29T09:34:16;17.00;74.40
7254;DHT22;4060;49.186;9.226;2023-04-29T09:36:46;17.00;74.50
7254;DHT22;4060;49.186;9.226;2023-04-29T09:39:17;17.00;74.40
7254;DHT22;4060;49.186;9.226;2023-04-29T09:42:00;17.10;74.60
7254;DHT22;4060;49.186;9.226;2023-04-29T09:44:30;17.10;74.60
7254;DHT22;4060;49.186;9.226;2023-04-29T09:47:00;17.10;74.50
7254;DHT22;4060;49.186;9.226;2023-04-29T09:49:33;17.20;74.50
7254;DHT22;4060;49.186;9.226;2023-04-29T09:52:05;17.10;74.40
7254;DHT22;4060;49.186;9.226;2023-04-29T09:54:35;17.20;74.50
7254;DHT22;4060;49.186;9.226;2023-04-29T09:57:05;17.20;74.40
7254;DHT22;4060;49.186;9.226;2023-04-29T09:59:36;17.20;74.40
7254;DHT22;4060;49.186;9.226;2023-04-29T10:02:09;17.30;74.40
7254;DHT22;4060;49.186;9.226;2023-04-29T10:04:44;17.30;74.40
7254;DHT22;4060;49.186;9.226;2023-04-29T10:07:14;17.30;74.30
7254;DHT22;4060;49.186;9.226;2023-04-29T10:09:45;17.30;74.20
7254;DHT22;4060;49.186;9.226;2023-04-29T10:12:16;17.30;74.10
7254;DHT22;4060;49.186;9.226;2023-04-29T10:14:52;17.30;74.10
7254;DHT22;4060;49.186;9.226;2023-04-29T10:17:29;17.30;74.10
7254;DHT22;4060;49.186;9.226;2023-04-29T10:20:06;17.40;74.10
7254;DHT22;4060;49.186;9.226;2023-04-29T10:22:43;17.40;73.90
7254;DHT22;4060;49.186;9.226;2023-04-29T10:25:15;17.40;73.90
7254;DHT22;4060;49.186;9.226;2023-04-29T10:27:45;17.40;73.70
7254;DHT22;4060;49.186;9.226;2023-04-29T10:30:16;17.40;73.60
7254;DHT22;4060;49.186;9.226;2023-04-29T10:32:46;17.40;73.60
7254;DHT22;4060;49.186;9.226;2023-04-29T10:35:18;17.40;73.50
7254;DHT22;4060;49.186;9.226;2023-04-29T10:37:49;17.50;73.50
7254;DHT22;4060;49.186;9.226;2023-04-29T10:40:26;17.50;73.40
7254;DHT22;4060;49.186;9.226;2023-04-29T10:42:58;17.50;73.20
7254;DHT22;4060;49.186;9.226;2023-04-29T10:45:28;17.50;73.10
7254;DHT22;4060;49.186;9.226;2023-04-29T10:48:11;17.50;73.10
7254;DHT22;4060;49.186;9.226;2023-04-29T10:51:00;17.50;73.00
7254;DHT22;4060;49.186;9.226;2023-04-29T10:53:33;17.60;73.00
7254;DHT22;4060;49.186;9.226;2023-04-29T10:56:08;17.50;72.70
7254;DHT22;4060;49.186;9.226;2023-04-29T10:58:42;17.50;72.60
7254;DHT22;4060;49.186;9.226;2023-04-29T11:01:13;17.60;72.70
7254;DHT22;4060;49.186;9.226;2023-04-29T11:03:50;17.60;72.50
7254;DHT22;4060;49.186;9.226;2023-04-29T11:06:38;17.60;72.40
7254;DHT22;4060;49.186;9.226;2023-04-29T11:09:10;17.60;71.80
7254;DHT22;4060;49.186;9.226;2023-04-29T11:11:41;17.60;70.60
7254;DHT22;4060;49.186;9.226;2023-04-29T11:14:12;17.60;69.60
7254;DHT22;4060;49.186;9.226;2023-04-29T11:16:49;17.60;69.10
7254;DHT22;4060;49.186;9.226;2023-04-29T11:19:19;17.70;69.30
7254;DHT22;4060;49.186;9.226;2023-04-29T11:22:13;17.80;69.80
7254;DHT22;4060;49.186;9.226;2023-04-29T11:24:51;18.10;69.90
7254;DHT22;4060;49.186;9.226;2023-04-29T11:27:21;18.40;69.70
7254;DHT22;4060;49.186;9.226;2023-04-29T11:29:53;18.60;69.30
7254;DHT22;4060;49.186;9.226;2023-04-29T11:32:24;18.90;68.90
7254;DHT22;4060;49.186;9.226;2023-04-29T11:34:54;19.10;68.40
7254;DHT22;4060;49.186;9.226;2023-04-29T11:37:26;19.20;67.90
7254;DHT22;4060;49.186;9.226;2023-04-29T11:40:00;19.30;67.40
7254;DHT22;4060;49.186;9.226;2023-04-29T11:42:29;19.50;67.10
7254;DHT22;4060;49.186;9.226;2023-04-29T11:44:58;19.60;66.90
7254;DHT22;4060;49.186;9.226;2023-04-29T11:47:28;19.70;66.50
7254;DHT22;4060;49.186;9.226;2023-04-29T11:50:10;19.80;66.30
7254;DHT22;4060;49.186;9.226;2023-04-29T11:52:44;19.90;66.00
7254;DHT22;4060;49.186;9.226;2023-04-29T11:55:14;19.90;65.60
7254;DHT22;4060;49.186;9.226;2023-04-29T11:57:43;20.00;64.80
7254;DHT22;4060;49.186;9.226;2023-04-29T12:00:14;20.00;63.60
7254;DHT22;4060;49.186;9.226;2023-04-29T12:02:44;19.90;63.20
7254;DHT22;4060;49.186;9.226;2023-04-29T12:05:14;19.80;63.00
7254;DHT22;4060;49.186;9.226;2023-04-29T12:07:49;19.70;63.00
7254;DHT22;4060;49.186;9.226;2023-04-29T12:10:18;19.60;63.30
7254;DHT22;4060;49.186;9.226;2023-04-29T12:12:48;19.50;63.40
7254;DHT22;4060;49.186;9.226;2023-04-29T12:15:17;19.40;63.60
7254;DHT22;4060;49.186;9.226;2023-04-29T12:17:46;19.30;63.80
7254;DHT22;4060;49.186;9.226;2023-04-29T12:20:16;19.20;64.00
7254;DHT22;4060;49.186;9.226;2023-04-29T12:22:49;19.20;65.00
7254;DHT22;4060;49.186;9.226;2023-04-29T12:25:19;19.10;64.40
7254;DHT22;4060;49.186;9.226;2023-04-29T12:27:59;19.10;64.60
7254;DHT22;4060;49.186;9.226;2023-04-29T12:30:34;19.00;64.90
7254;DHT22;4060;49.186;9.226;2023-04-29T12:33:06;18.90;65.00
7254;DHT22;4060;49.186;9.226;2023-04-29T12:35:36;18.90;65.30
7254;DHT22;4060;49.186;9.226;2023-04-29T12:38:15;18.90;65.50
7254;DHT22;4060;49.186;9.226;2023-04-29T12:40:48;18.90;65.60
7254;DHT22;4060;49.186;9.226;2023-04-29T12:43:18;18.80;65.60
7254;DHT22;4060;49.186;9.226;2023-04-29T12:45:48;18.80;65.60
7254;DHT22;4060;49.186;9.226;2023-04-29T12:48:17;18.80;65.70
7254;DHT22;4060;49.186;9.226;2023-04-29T12:50:49;18.70;65.70
7254;DHT22;4060;49.186;9.226;2023-04-29T12:53:20;18.80;65.90
7254;DHT22;4060;49.186;9.226;2023-04-29T12:55:50;18.70;65.80
7254;DHT22;4060;49.186;9.226;2023-04-29T12:58:19;18.70;65.90
7254;DHT22;4060;49.186;9.226;2023-04-29T13:00:49;18.70;66.00
7254;DHT22;4060;49.186;9.226;2023-04-29T13:03:19;18.70;66.00
7254;DHT22;4060;49.186;9.226;2023-04-29T13:05:48;18.70;66.10
7254;DHT22;4060;49.186;9.226;2023-04-29T13:08:21;18.70;66.00
7254;DHT22;4060;49.186;9.226;2023-04-29T13:10:51;18.70;66.10
7254;DHT22;4060;49.186;9.226;2023-04-29T13:13:20;18.60;65.90
7254;DHT22;4060;49.186;9.226;2023-04-29T13:15:49;18.60;65.90
7254;DHT22;4060;49.186;9.226;2023-04-29T13:18:19;18.70;65.90
7254;DHT22;4060;49.186;9.226;2023-04-29T13:20:48;18.60;65.80
7254;DHT22;4060;49.186;9.226;2023-04-29T13:23:18;18.70;66.00
7254;DHT22;4060;49.186;9.226;2023-04-29T13:25:49;18.70;66.10
7254;DHT22;4060;49.186;9.226;2023-04-29T13:28:18;18.70;66.20
7254;DHT22;4060;49.186;9.226;2023-04-29T13:30:48;18.70;66.20
7254;DHT22;4060;49.186;9.226;2023-04-29T13:33:18;18.70;66.20
7254;DHT22;4060;49.186;9.226;2023-04-29T13:35:48;18.70;66.10
7254;DHT22;4060;49.186;9.226;2023-04-29T13:38:18;18.70;66.10
7254;DHT22;4060;49.186;9.226;2023-04-29T13:40:52;18.70;66.00
7254;DHT22;4060;49.186;9.226;2023-04-29T13:43:21;18.70;66.00
7254;DHT22;4060;49.186;9.226;2023-04-29T13:45:51;18.70;65.80
7254;DHT22;4060;49.186;9.226;2023-04-29T13:48:21;18.70;65.80
7254;DHT22;4060;49.186;9.226;2023-04-29T13:50:51;18.60;65.60
7254;DHT22;4060;49.186;9.226;2023-04-29T13:53:20;18.60;65.50
7254;DHT22;4060;49.186;9.226;2023-04-29T13:55:52;18.70;65.50
7254;DHT22;4060;49.186;9.226;2023-04-29T13:58:21;18.60;65.40
7254;DHT22;4060;49.186;9.226;2023-04-29T14:00:51;18.70;65.50
7254;DHT22;4060;49.186;9.226;2023-04-29T14:03:20;18.60;65.30
7254;DHT22;4060;49.186;9.226;2023-04-29T14:05:50;18.60;65.20
7254;DHT22;4060;49.186;9.226;2023-04-29T14:08:19;18.60;65.20
7254;DHT22;4060;49.186;9.226;2023-04-29T14:10:56;18.60;65.30
7254;DHT22;4060;49.186;9.226;2023-04-29T14:13:26;18.60;65.50
7254;DHT22;4060;49.186;9.226;2023-04-29T14:15:55;18.60;65.50
7254;DHT22;4060;49.186;9.226;2023-04-29T14:18:25;18.60;65.60
7254;DHT22;4060;49.186;9.226;2023-04-29T14:20:57;18.50;65.50
7254;DHT22;4060;49.186;9.226;2023-04-29T14:23:27;18.50;65.60
7254;DHT22;4060;49.186;9.226;2023-04-29T14:25:59;18.60;65.70
7254;DHT22;4060;49.186;9.226;2023-04-29T14:28:28;18.60;65.70
7254;DHT22;4060;49.186;9.226;2023-04-29T14:30:57;18.60;65.90
7254;DHT22;4060;49.186;9.226;2023-04-29T14:33:27;18.60;65.80
7254;DHT22;4060;49.186;9.226;2023-04-29T14:35:56;18.50;65.60
7254;DHT22;4060;49.186;9.226;2023-04-29T14:38:26;18.50;65.60
7254;DHT22;4060;49.186;9.226;2023-04-29T14:40:57;18.60;65.80
7254;DHT22;4060;49.186;9.226;2023-04-29T14:43:27;18.50;65.60
7254;DHT22;4060;49.186;9.226;2023-04-29T14:45:57;18.50;65.60
7254;DHT22;4060;49.186;9.226;2023-04-29T14:48:26;18.50;65.60
7254;DHT22;4060;49.186;9.226;2023-04-29T14:50:56;18.60;65.70
7254;DHT22;4060;49.186;9.226;2023-04-29T14:53:25;18.50;65.60
7254;DHT22;4060;49.186;9.226;2023-04-29T14:55:54;18.50;65.60
7254;DHT22;4060;49.186;9.226;2023-04-29T14:58:26;18.50;65.50
7254;DHT22;4060;49.186;9.226;2023-04-29T15:00:55;18.50;65.40
7254;DHT22;4060;49.186;9.226;2023-04-29T15:03:23;18.50;65.50
7254;DHT22;4060;49.186;9.226;2023-04-29T15:05:53;18.50;65.40
7254;DHT22;4060;49.186;9.226;2023-04-29T15:08:22;18.50;65.40
7254;DHT22;4060;49.186;9.226;2023-04-29T15:10:52;18.50;65.30
7254;DHT22;4060;49.186;9.226;2023-04-29T15:13:21;18.50;65.30
7254;DHT22;4060;49.186;9.226;2023-04-29T15:15:52;18.50;65.30
7254;DHT22;4060;49.186;9.226;2023-04-29T15:18:22;18.50;65.40
7254;DHT22;4060;49.186;9.226;2023-04-29T15:20:52;18.50;65.40
7254;DHT22;4060;49.186;9.226;2023-04-29T15:23:21;18.50;65.40
7254;DHT22;4060;49.186;9.226;2023-04-29T15:25:51;18.50;65.40
7254;DHT22;4060;49.186;9.226;2023-04-29T15:28:21;18.50;65.50
7254;DHT22;4060;49.186;9.226;2023-04-29T15:30:53;18.50;65.40
7254;DHT22;4060;49.186;9.226;2023-04-29T15:33:22;18.50;65.40
7254;DHT22;4060;49.186;9.226;2023-04-29T15:35:51;18.50;65.40
7254;DHT22;4060;49.186;9.226;2023-04-29T15:38:21;18.50;65.30
7254;DHT22;4060;49.186;9.226;2023-04-29T15:40:50;18.50;65.30
7254;DHT22;4060;49.186;9.226;2023-04-29T15:43:26;18.50;65.30
7254;DHT22;4060;49.186;9.226;2023-04-29T15:45:58;18.50;65.20
7254;DHT22;4060;49.186;9.226;2023-04-29T15:48:27;18.50;65.20
7254;DHT22;4060;49.186;9.226;2023-04-29T15:50:57;18.40;65.10
7254;DHT22;4060;49.186;9.226;2023-04-29T15:53:26;18.50;65.30
7254;DHT22;4060;49.186;9.226;2023-04-29T15:55:56;18.50;65.30
7254;DHT22;4060;49.186;9.226;2023-04-29T15:58:25;18.40;65.00
7254;DHT22;4060;49.186;9.226;2023-04-29T16:00:58;18.40;64.70
7254;DHT22;4060;49.186;9.226;2023-04-29T16:03:27;18.40;64.70
7254;DHT22;4060;49.186;9.226;2023-04-29T16:05:57;18.40;64.60
7254;DHT22;4060;49.186;9.226;2023-04-29T16:08:27;18.40;64.60
7254;DHT22;4060;49.186;9.226;2023-04-29T16:10:57;18.40;64.60
7254;DHT22;4060;49.186;9.226;2023-04-29T16:13:26;18.40;64.70
7254;DHT22;4060;49.186;9.226;2023-04-29T16:15:58;18.40;64.90
7254;DHT22;4060;49.186;9.226;2023-04-29T16:18:27;18.40;64.90
7254;DHT22;4060;49.186;9.226;2023-04-29T16:20:57;18.40;65.00
7254;DHT22;4060;49.186;9.226;2023-04-29T16:23:26;18.40;65.10
7254;DHT22;4060;49.186;9.226;2023-04-29T16:25:56;18.40;65.10
7254;DHT22;4060;49.186;9.226;2023-04-29T16:28:25;18.40;65.00
7254;DHT22;4060;49.186;9.226;2023-04-29T16:30:54;18.40;65.00
7254;DHT22;4060;49.186;9.226;2023-04-29T16:33:25;18.40;65.00